Time;durP1;ratioP1;P1;durP2;ratioP2;P2;SDS_P1;SDS_P2;PMS_P1;PMS_P2;Temp;Humidity;BMP_temperature;BMP_pressure;BME280_temperature;BME280_humidity;BME280_pressure;Samples;Min_cycle;Max_cycle;Signal;HPM_P1;HPM_P2
2021/08/04 00:01:49;;;;;;;8.48;7.68;;;14.70;99.90;;;;;;4993551;28;20019;-75
2021/08/04 00:04:14;;;;;;;9.07;7.50;;;14.70;99.90;;;;;;4994495;28;20022;-76
2021/08/04 00:06:40;;;;;;;7.57;6.97;;;14.80;99.90;;;;;;4994425;28;20061;-75
2021/08/04 00:09:06;;;;;;;12.80;7.97;;;14.80;99.90;;;;;;4993253;28;20486;-76
2021/08/04 00:11:32;;;;;;;10.52;7.30;;;14.90;99.90;;;;;;4993407;28;20046;-77
2021/08/04 00:13:57;;;;;;;8.77;7.97;;;14.90;99.90;;;;;;4993823;28;20027;-77
2021/08/04 00:16:23;;;;;;;7.78;7.18;;;14.90;99.90;;;;;;4993570;28;20104;-77
2021/08/04 00:18:49;;;;;;;9.23;7.50;;;14.90;99.90;;;;;;4993810;28;20033;-77
2021/08/04 00:21:14;;;;;;;8.95;7.30;;;14.90;99.90;;;;;;4994137;28;20406;-76
2021/08/04 00:23:40;;;;;;;8.38;7.20;;;15.00;99.90;;;;;;4992989;28;20463;-76
2021/08/04 00:26:05;;;;;;;9.75;7.53;;;15.00;99.90;;;;;;4994014;28;20496;-77
2021/08/04 00:28:31;;;;;;;8.10;7.40;;;15.00;99.90;;;;;;4993492;28;20030;-76
2021/08/04 00:30:56;;;;;;;11.90;7.93;;;14.90;99.90;;;;;;4994182;28;20030;-76
2021/08/04 00:33:22;;;;;;;7.93;7.13;;;14.90;99.90;;;;;;4993550;28;20088;-76
2021/08/04 00:35:47;;;;;;;7.57;6.85;;;14.90;99.90;;;;;;4993025;28;20118;-76
2021/08/04 00:38:14;;;;;;;7.20;6.65;;;14.90;99.90;;;;;;4992843;28;20034;-76
2021/08/04 00:40:41;;;;;;;8.70;7.80;;;14.80;99.90;;;;;;4993217;28;20530;-76
2021/08/04 00:43:07;;;;;;;7.97;7.20;;;14.80;99.90;;;;;;4992613;28;20030;-75
2021/08/04 00:45:34;;;;;;;10.00;7.75;;;14.80;99.90;;;;;;4992565;28;20524;-76
2021/08/04 00:48:00;;;;;;;8.27;7.57;;;14.80;99.90;;;;;;4993986;28;20042;-74
2021/08/04 00:50:26;;;;;;;8.57;7.35;;;14.80;99.90;;;;;;4993127;28;20080;-77
2021/08/04 00:52:52;;;;;;;8.25;7.53;;;14.70;99.90;;;;;;4991805;28;20517;-77
2021/08/04 00:55:23;;;;;;;8.82;8.02;;;14.70;99.90;;;;;;4992876;28;20022;-75
2021/08/04 00:57:49;;;;;;;7.95;7.10;;;14.80;99.90;;;;;;4992680;28;20037;-76
2021/08/04 01:00:15;;;;;;;8.30;7.45;;;14.80;99.90;;;;;;4992476;28;20026;-76
2021/08/04 01:02:46;;;;;;;12.13;8.70;;;14.80;99.90;;;;;;4993322;28;20045;-77
2021/08/04 01:05:17;;;;;;;7.85;7.25;;;14.90;99.90;;;;;;4992671;28;20032;-76
2021/08/04 01:07:53;;;;;;;10.05;7.80;;;14.90;99.90;;;;;;4993048;28;20088;-75
2021/08/04 01:10:41;;;;;;;9.57;7.68;;;14.90;99.90;;;;;;4993247;28;20117;-77
2021/08/04 01:13:14;;;;;;;10.82;8.50;;;14.90;99.90;;;;;;4992879;28;20057;-77
2021/08/04 01:15:53;;;;;;;9.05;8.23;;;14.90;99.90;;;;;;4993143;28;20150;-76
2021/08/04 01:18:25;;;;;;;9.18;8.27;;;14.90;99.90;;;;;;4993259;28;20058;-76
2021/08/04 01:20:51;;;;;;;9.80;9.00;;;14.80;99.90;;;;;;4992032;28;20402;-76
2021/08/04 01:23:53;;;;;;;8.05;7.45;;;14.80;99.90;;;;;;4993969;28;20030;-75
2021/08/04 01:26:42;;;;;;;8.57;7.88;;;14.80;99.90;;;;;;4992534;28;20038;-76
2021/08/04 01:29:12;;;;;;;9.55;8.63;;;14.80;99.90;;;;;;4993522;28;20024;-76
2021/08/04 01:31:39;;;;;;;9.35;8.55;;;14.80;99.90;;;;;;4993306;28;20023;-76
2021/08/04 01:34:06;;;;;;;9.38;7.78;;;14.80;99.90;;;;;;4991914;28;20037;-76
2021/08/04 01:36:32;;;;;;;10.95;8.65;;;14.80;99.90;;;;;;4979394;28;20022;-75
2021/08/04 01:39:00;;;;;;;9.77;8.88;;;14.70;99.90;;;;;;4990664;28;20026;-75
2021/08/04 01:41:27;;;;;;;9.40;8.50;;;14.70;99.90;;;;;;4986392;28;20475;-76
2021/08/04 01:43:54;;;;;;;8.75;8.05;;;14.70;99.90;;;;;;4983694;28;20030;-77
2021/08/04 01:46:22;;;;;;;9.68;8.75;;;14.70;99.90;;;;;;4992861;28;20433;-76
2021/08/04 01:48:49;;;;;;;9.30;8.27;;;14.60;99.90;;;;;;4991619;28;20109;-75
2021/08/04 01:51:16;;;;;;;9.20;8.27;;;14.60;99.90;;;;;;4992713;28;20109;-75
2021/08/04 01:53:44;;;;;;;9.35;8.40;;;14.60;99.90;;;;;;4992232;28;20058;-77
2021/08/04 01:56:11;;;;;;;9.77;8.88;;;14.60;99.90;;;;;;4979399;28;20014;-76
2021/08/04 01:58:39;;;;;;;11.77;8.50;;;15.10;99.90;;;;;;4992816;28;20037;-76
2021/08/04 02:01:04;;;;;;;9.65;8.75;;;14.60;99.90;;;;;;4992515;28;20022;-77
2021/08/04 02:03:30;;;;;;;10.93;9.77;;;14.60;99.90;;;;;;4992532;28;20040;-76
2021/08/04 02:05:58;;;;;;;9.23;8.38;;;14.60;99.90;;;;;;4992534;28;20022;-76
2021/08/04 02:08:41;;;;;;;10.55;9.30;;;14.60;99.90;;;;;;4991816;28;20089;-76
2021/08/04 02:11:41;;;;;;;10.98;9.82;;;14.60;99.90;;;;;;4988773;28;20061;-77
2021/08/04 02:14:20;;;;;;;9.68;8.88;;;14.70;99.90;;;;;;4986671;28;20141;-78
2021/08/04 02:16:59;;;;;;;10.20;9.13;;;14.70;99.90;;;;;;4992001;28;20045;-75
2021/08/04 02:19:55;;;;;;;9.00;8.17;;;14.70;99.90;;;;;;4992967;28;20113;-76
2021/08/04 02:22:28;;;;;;;9.45;8.15;;;14.70;99.90;;;;;;4992553;28;20037;-74
2021/08/04 02:25:05;;;;;;;11.23;9.35;;;14.80;99.90;;;;;;4992310;28;20030;-75
2021/08/04 02:27:33;;;;;;;9.63;8.43;;;14.80;99.90;;;;;;4992677;28;20045;-76
2021/08/04 02:30:00;;;;;;;11.95;9.15;;;14.80;99.90;;;;;;4991598;28;20018;-76
2021/08/04 02:32:26;;;;;;;9.15;8.23;;;14.70;99.90;;;;;;4992883;28;20041;-76
2021/08/04 02:34:52;;;;;;;10.20;9.23;;;14.80;99.90;;;;;;4992057;28;20498;-76
2021/08/04 02:37:18;;;;;;;11.18;8.43;;;14.70;99.90;;;;;;4992179;28;20030;-76
2021/08/04 02:39:44;;;;;;;11.02;9.32;;;15.20;99.90;;;;;;4992353;28;20027;-75
2021/08/04 02:42:10;;;;;;;9.90;8.90;;;14.70;99.90;;;;;;4992383;28;20030;-76
2021/08/04 02:44:39;;;;;;;10.60;9.50;;;14.80;99.90;;;;;;4991906;28;20022;-76
2021/08/04 02:47:05;;;;;;;10.05;9.15;;;14.70;99.90;;;;;;4993423;28;20104;-75
2021/08/04 02:49:31;;;;;;;23.83;10.95;;;14.60;99.90;;;;;;4997279;28;20028;-76
2021/08/04 02:51:57;;;;;;;10.77;9.77;;;14.60;99.90;;;;;;4995108;28;20390;-76
2021/08/04 02:54:22;;;;;;;10.45;9.48;;;14.60;99.90;;;;;;4996203;28;20032;-77
2021/08/04 02:56:48;;;;;;;13.82;11.05;;;14.50;99.90;;;;;;4995635;28;20105;-77
2021/08/04 02:59:14;;;;;;;11.88;10.90;;;14.50;99.90;;;;;;4997698;28;20471;-76
2021/08/04 03:01:39;;;;;;;12.07;10.82;;;14.40;99.90;;;;;;4995803;28;20061;-77
2021/08/04 03:04:05;;;;;;;10.32;9.27;;;14.40;99.90;;;;;;4995303;28;20018;-76
2021/08/04 03:06:31;;;;;;;10.70;9.57;;;14.20;99.90;;;;;;4995125;28;20077;-76
2021/08/04 03:08:56;;;;;;;17.45;10.13;;;14.20;99.90;;;;;;4992913;28;20479;-74
2021/08/04 03:11:22;;;;;;;11.85;10.77;;;14.10;99.90;;;;;;4984194;28;20406;-74
2021/08/04 03:13:47;;;;;;;14.68;10.07;;;14.10;99.90;;;;;;4994324;28;20030;-76
2021/08/04 03:16:13;;;;;;;10.00;9.20;;;14.00;99.90;;;;;;4995621;28;20477;-77
2021/08/04 03:18:39;;;;;;;11.23;10.23;;;14.00;99.90;;;;;;4995166;28;20029;-77
2021/08/04 03:21:04;;;;;;;12.48;11.27;;;13.90;99.90;;;;;;4994265;28;20019;-74
2021/08/04 03:23:30;;;;;;;11.30;10.10;;;13.90;99.90;;;;;;4994846;28;20100;-76
2021/08/04 03:25:55;;;;;;;11.15;10.05;;;13.90;99.90;;;;;;4994082;28;20053;-75
2021/08/04 03:28:21;;;;;;;12.32;10.52;;;13.80;99.90;;;;;;4994884;28;20038;-76
2021/08/04 03:30:47;;;;;;;14.10;9.70;;;13.80;99.90;;;;;;4994895;28;20030;-75
2021/08/04 03:33:12;;;;;;;10.32;9.43;;;13.80;99.90;;;;;;4994455;28;20038;-75
2021/08/04 03:35:38;;;;;;;10.93;9.90;;;13.70;99.90;;;;;;4995553;28;20525;-77
2021/08/04 03:38:03;;;;;;;11.43;10.30;;;13.70;99.90;;;;;;4994660;28;20564;-76
2021/08/04 03:40:29;;;;;;;12.77;9.35;;;13.70;99.90;;;;;;4994415;28;20031;-76
2021/08/04 03:42:55;;;;;;;10.80;9.85;;;13.70;99.90;;;;;;4994446;28;20077;-75
2021/08/04 03:45:20;;;;;;;14.38;10.15;;;13.60;99.90;;;;;;4981426;28;20027;-74
2021/08/04 03:47:46;;;;;;;10.88;9.88;;;13.60;99.90;;;;;;4993811;28;20073;-76
2021/08/04 03:50:12;;;;;;;12.45;10.30;;;13.50;99.90;;;;;;4994347;28;20064;-76
2021/08/04 03:52:41;;;;;;;11.77;10.60;;;13.60;99.90;;;;;;4994785;28;20035;-75
2021/08/04 03:55:07;;;;;;;15.63;11.60;;;13.50;99.90;;;;;;4993712;28;20023;-75
2021/08/04 03:57:33;;;;;;;13.55;10.68;;;13.50;99.90;;;;;;4994701;28;20034;-76
2021/08/04 03:59:58;;;;;;;11.57;10.38;;;13.50;99.90;;;;;;4994665;28;20024;-76
2021/08/04 04:02:24;;;;;;;13.82;11.70;;;13.50;99.90;;;;;;4993547;28;20117;-76
2021/08/04 04:04:49;;;;;;;11.18;10.07;;;13.50;99.90;;;;;;4994400;28;20022;-75
2021/08/04 04:07:16;;;;;;;11.65;10.60;;;13.40;99.90;;;;;;4994368;28;20479;-77
2021/08/04 04:09:42;;;;;;;16.33;10.95;;;13.40;99.90;;;;;;4994373;28;20040;-76
2021/08/04 04:12:08;;;;;;;13.90;11.40;;;13.40;99.90;;;;;;4994180;28;20069;-75
2021/08/04 04:14:34;;;;;;;12.38;11.18;;;13.40;99.90;;;;;;4995248;28;20470;-77
2021/08/04 04:16:59;;;;;;;11.25;10.10;;;13.40;99.90;;;;;;4993283;28;20073;-74
2021/08/04 04:19:25;;;;;;;12.25;11.05;;;13.40;99.90;;;;;;4994925;28;20018;-76
2021/08/04 04:21:50;;;;;;;10.93;9.82;;;13.40;99.90;;;;;;4994612;28;20023;-76
2021/08/04 04:24:17;;;;;;;13.52;11.02;;;13.30;99.90;;;;;;4993857;28;20050;-76
2021/08/04 04:26:45;;;;;;;13.82;10.52;;;13.30;99.90;;;;;;4995791;28;20030;-77
2021/08/04 04:29:11;;;;;;;11.60;10.55;;;13.60;99.90;;;;;;4993415;28;20113;-76
2021/08/04 04:31:37;;;;;;;11.90;10.38;;;13.40;99.90;;;;;;4993241;28;20542;-76
2021/08/04 04:34:03;;;;;;;15.85;11.18;;;13.40;99.90;;;;;;4991812;28;20080;-76
2021/08/04 04:36:28;;;;;;;15.35;10.48;;;13.40;99.90;;;;;;4992688;28;20065;-76
2021/08/04 04:38:54;;;;;;;15.25;10.77;;;13.40;99.90;;;;;;4993208;28;20137;-77
2021/08/04 04:41:19;;;;;;;11.00;9.98;;;13.40;99.90;;;;;;4992950;28;20375;-75
2021/08/04 04:43:45;;;;;;;11.60;9.38;;;13.40;99.90;;;;;;4991999;28;20029;-75
2021/08/04 04:46:11;;;;;;;10.43;9.52;;;13.40;99.90;;;;;;4992754;28;20483;-76
2021/08/04 04:48:36;;;;;;;10.30;9.20;;;13.40;99.90;;;;;;4993467;28;20426;-76
2021/08/04 04:51:02;;;;;;;10.68;9.63;;;13.50;99.90;;;;;;4992357;28;20030;-76
2021/08/04 04:53:28;;;;;;;13.20;9.63;;;13.50;99.90;;;;;;4992489;28;20030;-76
2021/08/04 04:55:54;;;;;;;10.88;9.88;;;13.50;99.90;;;;;;4980099;28;20028;-76
2021/08/04 04:58:20;;;;;;;9.73;8.90;;;13.50;99.90;;;;;;4992084;28;20693;-76
2021/08/04 05:00:45;;;;;;;10.50;9.40;;;13.60;99.90;;;;;;4992364;28;20050;-75
2021/08/04 05:03:11;;;;;;;10.80;8.70;;;13.60;99.90;;;;;;4992184;28;20018;-77
2021/08/04 05:05:36;;;;;;;10.68;9.38;;;13.60;99.90;;;;;;4968517;28;20587;-76
2021/08/04 05:08:02;;;;;;;12.98;9.52;;;13.70;99.90;;;;;;4954226;28;20038;-76
2021/08/04 05:10:27;;;;;;;14.25;9.68;;;13.70;99.90;;;;;;4955914;28;20087;-75
2021/08/04 05:12:53;;;;;;;15.23;9.73;;;13.80;99.90;;;;;;4955971;28;20043;-75
2021/08/04 05:15:18;;;;;;;10.38;9.38;;;13.80;99.90;;;;;;4956795;28;20026;-76
2021/08/04 05:17:44;;;;;;;11.02;10.07;;;13.80;99.90;;;;;;4957131;28;20027;-77
2021/08/04 05:20:11;;;;;;;10.90;9.73;;;13.80;99.90;;;;;;4954041;28;20038;-75
2021/08/04 05:22:36;;;;;;;11.38;9.88;;;13.80;99.90;;;;;;4957586;28;20118;-77
2021/08/04 05:25:02;;;;;;;12.63;10.05;;;13.90;99.90;;;;;;4961753;28;20114;-76
2021/08/04 05:27:28;;;;;;;12.45;9.13;;;13.90;99.90;;;;;;4955400;28;20403;-75
2021/08/04 05:29:54;;;;;;;10.30;9.18;;;14.00;99.90;;;;;;4953824;28;20042;-75
2021/08/04 05:32:19;;;;;;;11.13;9.90;;;14.10;99.90;;;;;;4959301;28;20019;-77
2021/08/04 05:34:45;;;;;;;10.13;8.73;;;14.10;99.90;;;;;;4957248;28;20535;-76
2021/08/04 05:37:10;;;;;;;10.23;9.18;;;14.10;99.90;;;;;;4955732;28;20050;-75
2021/08/04 05:39:36;;;;;;;11.30;9.02;;;14.30;99.90;;;;;;4958779;28;20463;-77
2021/08/04 05:42:02;;;;;;;9.95;9.00;;;14.40;99.90;;;;;;4958409;28;20019;-77
2021/08/04 05:44:27;;;;;;;16.73;9.73;;;14.40;99.90;;;;;;4960241;28;20106;-77
2021/08/04 05:46:53;;;;;;;9.82;8.85;;;14.50;99.90;;;;;;4959086;28;20033;-76
2021/08/04 05:49:18;;;;;;;10.35;9.23;;;14.50;99.90;;;;;;4957115;28;20039;-78
2021/08/04 05:51:44;;;;;;;11.00;9.18;;;14.70;99.90;;;;;;4956504;28;20027;-76
2021/08/04 05:54:09;;;;;;;10.63;9.32;;;14.80;99.90;;;;;;4954856;28;20020;-77
2021/08/04 05:56:35;;;;;;;10.52;8.95;;;14.90;99.90;;;;;;4960375;28;20023;-75
2021/08/04 05:59:00;;;;;;;9.50;8.60;;;14.90;99.90;;;;;;4956377;28;20023;-77
2021/08/04 06:01:26;;;;;;;23.88;11.00;;;15.10;99.90;;;;;;4959606;28;20015;-75
2021/08/04 06:03:51;;;;;;;10.27;9.38;;;15.20;99.90;;;;;;4955388;28;20037;-77
2021/08/04 06:06:17;;;;;;;9.50;8.57;;;15.40;99.90;;;;;;4954668;28;20027;-77
2021/08/04 06:08:43;;;;;;;9.93;9.02;;;15.40;99.90;;;;;;4966471;28;20402;-77
2021/08/04 06:11:08;;;;;;;9.77;8.73;;;15.60;99.90;;;;;;4955742;28;20082;-75
2021/08/04 06:13:34;;;;;;;13.85;8.82;;;15.70;99.90;;;;;;4955620;28;20028;-76
2021/08/04 06:15:59;;;;;;;9.50;8.50;;;15.80;99.90;;;;;;4956332;28;20110;-76
2021/08/04 06:18:25;;;;;;;9.70;8.73;;;15.90;99.90;;;;;;4954968;28;20407;-76
2021/08/04 06:20:50;;;;;;;10.02;8.60;;;16.00;99.90;;;;;;4967674;28;20038;-76
2021/08/04 06:23:16;;;;;;;11.60;8.07;;;16.00;99.90;;;;;;4959331;28;20011;-76
2021/08/04 06:25:41;;;;;;;9.10;8.30;;;16.10;99.90;;;;;;4961411;28;20023;-77
2021/08/04 06:28:07;;;;;;;10.23;8.85;;;16.90;99.90;;;;;;4959360;28;20031;-77
2021/08/04 06:30:36;;;;;;;11.52;8.95;;;16.40;99.90;;;;;;4974415;28;20027;-78
2021/08/04 06:33:01;;;;;;;12.52;9.50;;;16.40;99.90;;;;;;4961288;28;20054;-77
2021/08/04 06:35:27;;;;;;;13.63;9.25;;;16.50;99.90;;;;;;4958767;28;20059;-77
2021/08/04 06:37:52;;;;;;;9.80;8.93;;;16.50;99.90;;;;;;4970752;28;20121;-77
2021/08/04 06:40:18;;;;;;;11.80;9.68;;;16.50;99.90;;;;;;4957839;28;20468;-77
2021/08/04 06:42:43;;;;;;;9.77;8.88;;;16.50;99.90;;;;;;4956319;28;20468;-77
2021/08/04 06:45:09;;;;;;;10.80;9.80;;;16.50;99.90;;;;;;4961237;28;20024;-75
2021/08/04 06:47:38;;;;;;;11.25;9.10;;;16.50;99.90;;;;;;4964815;28;20431;-78
2021/08/04 06:50:04;;;;;;;10.00;9.00;;;16.50;99.90;;;;;;4959721;28;20058;-77
2021/08/04 06:52:30;;;;;;;10.57;9.52;;;16.50;99.90;;;;;;4961982;28;20059;-77
2021/08/04 06:54:56;;;;;;;10.93;9.25;;;16.50;99.90;;;;;;4963092;28;20053;-79
2021/08/04 06:57:21;;;;;;;10.60;9.50;;;16.50;99.90;;;;;;4963867;28;20027;-80
2021/08/04 06:59:47;;;;;;;10.40;9.30;;;16.50;99.90;;;;;;4957801;28;20047;-80
2021/08/04 07:02:12;;;;;;;12.30;9.65;;;16.60;99.90;;;;;;4962770;28;20038;-78
2021/08/04 07:04:38;;;;;;;9.73;8.77;;;16.60;99.90;;;;;;4959306;28;20026;-79
2021/08/04 07:07:04;;;;;;;10.75;9.48;;;16.70;99.90;;;;;;4960525;28;20030;-80
2021/08/04 07:09:34;;;;;;;10.70;9.65;;;16.70;99.90;;;;;;4974176;28;20038;-80
2021/08/04 07:12:00;;;;;;;10.82;8.13;;;16.80;99.90;;;;;;4968692;28;20039;-79
2021/08/04 07:14:26;;;;;;;9.63;8.73;;;16.90;99.90;;;;;;4968875;28;20046;-80
2021/08/04 07:16:52;;;;;;;10.80;9.35;;;16.90;99.90;;;;;;4967237;28;20026;-79
2021/08/04 07:19:17;;;;;;;10.45;9.43;;;17.00;99.90;;;;;;4971481;28;20027;-80
2021/08/04 07:21:44;;;;;;;13.55;9.25;;;17.30;99.90;;;;;;4974506;28;20054;-79
2021/08/04 07:24:10;;;;;;;10.25;9.13;;;17.10;99.90;;;;;;4963495;28;20027;-81
2021/08/04 07:26:38;;;;;;;9.38;8.57;;;17.10;99.90;;;;;;4964302;28;20091;-79
2021/08/04 07:29:05;;;;;;;8.98;7.55;;;17.20;99.90;;;;;;4957742;28;20037;-78
2021/08/04 07:31:32;;;;;;;8.63;7.95;;;17.20;99.90;;;;;;4959152;28;20027;-78
2021/08/04 07:33:58;;;;;;;9.57;7.68;;;17.30;99.90;;;;;;4956854;28;20026;-79
2021/08/04 07:36:24;;;;;;;9.52;8.55;;;17.30;99.90;;;;;;4956478;28;20034;-79
2021/08/04 07:38:50;;;;;;;9.52;8.50;;;17.40;99.90;;;;;;4974245;28;20031;-77
2021/08/04 07:41:15;;;;;;;9.38;8.30;;;17.40;99.90;;;;;;4970507;28;20023;-77
2021/08/04 07:43:41;;;;;;;11.00;8.45;;;17.50;99.90;;;;;;4973489;28;20019;-77
2021/08/04 07:46:07;;;;;;;10.43;8.48;;;17.60;99.90;;;;;;4976116;28;20474;-77
2021/08/04 07:48:34;;;;;;;8.35;7.47;;;18.00;99.90;;;;;;4976450;28;20123;-78
2021/08/04 07:51:02;;;;;;;11.75;7.63;;;17.70;99.90;;;;;;4969775;28;20019;-79
2021/08/04 07:53:31;;;;;;;8.05;7.30;;;17.00;99.90;;;;;;4973694;28;20023;-77
2021/08/04 07:55:57;;;;;;;14.02;7.40;;;17.70;99.90;;;;;;4968969;28;20027;-77
2021/08/04 07:58:23;;;;;;;10.55;8.43;;;17.70;99.90;;;;;;4972200;28;20037;-79
2021/08/04 08:00:49;;;;;;;10.73;7.43;;;17.80;99.90;;;;;;4976148;28;20031;-80
2021/08/04 08:03:15;;;;;;;7.80;7.03;;;17.80;99.90;;;;;;4977043;28;20025;-79
2021/08/04 08:05:40;;;;;;;8.48;6.65;;;17.80;99.90;;;;;;4986140;28;20019;-78
2021/08/04 08:08:07;;;;;;;6.38;5.75;;;17.90;99.90;;;;;;4970473;28;20104;-78
2021/08/04 08:10:37;;;;;;;7.57;6.05;;;17.90;99.90;;;;;;4972549;28;20364;-78
2021/08/04 08:13:04;;;;;;;6.70;6.05;;;18.00;99.90;;;;;;4970377;28;20058;-80
2021/08/04 08:15:30;;;;;;;8.30;6.32;;;18.10;99.90;;;;;;4968687;28;20035;-77
2021/08/04 08:17:55;;;;;;;5.97;5.47;;;18.20;99.90;;;;;;4974406;28;20019;-79
2021/08/04 08:20:21;;;;;;;10.98;6.40;;;18.20;99.90;;;;;;4973455;28;20031;-78
2021/08/04 08:22:48;;;;;;;7.85;6.53;;;18.30;99.90;;;;;;4971118;28;20027;-78
2021/08/04 08:25:14;;;;;;;5.38;4.75;;;18.30;99.90;;;;;;4971785;28;20023;-79
2021/08/04 08:27:41;;;;;;;5.82;4.30;;;18.30;99.90;;;;;;4969597;28;20506;-80
2021/08/04 08:30:09;;;;;;;5.13;4.25;;;18.30;99.90;;;;;;4967194;28;20023;-79
2021/08/04 08:32:34;;;;;;;11.07;5.50;;;18.40;99.90;;;;;;4971749;28;20034;-79
2021/08/04 08:35:00;;;;;;;5.55;4.90;;;18.50;99.90;;;;;;4973235;28;20022;-79
2021/08/04 08:37:26;;;;;;;13.73;5.18;;;18.60;99.90;;;;;;4971446;28;20478;-80
2021/08/04 08:39:57;;;;;;;6.85;4.22;;;18.70;99.90;;;;;;4971884;28;20467;-81
2021/08/04 08:42:26;;;;;;;6.38;4.00;;;18.70;99.90;;;;;;4971731;28;20090;-79
2021/08/04 08:44:51;;;;;;;8.20;4.57;;;18.80;99.90;;;;;;4971236;28;20483;-80
2021/08/04 08:47:17;;;;;;;7.15;4.82;;;18.80;99.90;;;;;;4971806;28;20039;-79
2021/08/04 08:49:50;;;;;;;6.88;4.68;;;18.90;99.90;;;;;;4972953;28;20037;-78
2021/08/04 08:52:16;;;;;;;8.18;4.40;;;19.00;99.90;;;;;;4969812;28;20034;-79
2021/08/04 08:54:42;;;;;;;8.18;4.82;;;19.00;99.90;;;;;;4962647;28;20022;-78
2021/08/04 08:57:07;;;;;;;6.35;4.50;;;18.90;99.90;;;;;;4968149;28;20039;-80
2021/08/04 08:59:33;;;;;;;5.80;4.75;;;19.00;99.90;;;;;;4960513;28;20027;-79
2021/08/04 09:01:59;;;;;;;10.30;4.78;;;19.10;99.90;;;;;;4971881;28;20129;-81
2021/08/04 09:04:25;;;;;;;7.60;4.43;;;19.10;99.90;;;;;;4969616;28;20447;-81
2021/08/04 09:06:56;;;;;;;4.13;3.60;;;19.20;99.90;;;;;;4973112;28;20431;-80
2021/08/04 09:09:27;;;;;;;6.82;4.30;;;19.20;99.90;;;;;;4970408;28;20082;-80
2021/08/04 09:11:55;;;;;;;5.88;5.25;;;19.80;99.90;;;;;;4963517;28;20518;-79
2021/08/04 09:14:29;;;;;;;6.68;5.80;;;19.40;99.90;;;;;;4968157;28;20086;-79
2021/08/04 09:17:15;;;;;;;5.78;4.38;;;19.50;99.90;;;;;;4976791;28;20057;-82
2021/08/04 09:19:51;;;;;;;4.75;3.90;;;19.50;99.90;;;;;;4973080;28;20169;-83
2021/08/04 09:22:25;;;;;;;7.15;4.00;;;19.70;99.90;;;;;;4971820;28;20019;-84
2021/08/04 09:24:55;;;;;;;8.05;4.22;;;19.70;99.90;;;;;;4970051;28;20045;-83
2021/08/04 09:27:20;;;;;;;8.38;4.88;;;19.80;99.90;;;;;;4964351;28;20503;-82
2021/08/04 09:29:59;;;;;;;5.70;3.88;;;19.80;99.90;;;;;;4968183;28;20116;-83
2021/08/04 09:32:26;;;;;;;4.63;3.88;;;19.90;99.90;;;;;;4960358;28;20034;-82
2021/08/04 09:34:52;;;;;;;7.15;3.85;;;20.00;99.90;;;;;;4964035;28;20170;-82
2021/08/04 09:37:20;;;;;;;5.20;4.03;;;20.10;99.90;;;;;;4965072;28;20026;-82
2021/08/04 09:40:01;;;;;;;6.70;4.40;;;20.20;99.90;;;;;;4969769;28;20035;-83
2021/08/04 09:42:46;;;;;;;4.30;3.80;;;20.30;99.90;;;;;;4968386;28;20039;-82
2021/08/04 09:45:13;;;;;;;6.10;3.60;;;20.40;99.90;;;;;;4972649;28;20041;-84
2021/08/04 09:47:54;;;;;;;6.05;3.33;;;20.40;99.90;;;;;;4973206;28;20487;-83
2021/08/04 09:50:20;;;;;;;4.93;3.33;;;20.50;99.90;;;;;;4973891;28;20719;-82
2021/08/04 09:52:56;;;;;;;4.32;3.90;;;20.60;99.90;;;;;;4969495;28;20034;-81
2021/08/04 09:55:23;;;;;;;14.48;5.13;;;20.70;99.90;;;;;;4972100;28;20058;-82
2021/08/04 09:57:51;;;;;;;6.32;3.97;;;20.80;99.90;;;;;;4978787;28;20125;-82
2021/08/04 10:00:19;;;;;;;6.30;3.80;;;20.80;99.90;;;;;;4990041;28;20031;-80
2021/08/04 10:02:45;;;;;;;4.97;3.42;;;21.00;99.90;;;;;;4977175;28;20089;-79
2021/08/04 10:05:26;;;;;;;4.40;3.55;;;21.00;99.90;;;;;;4964614;28;20493;-78
2021/08/04 10:07:59;;;;;;;6.43;3.83;;;21.00;99.90;;;;;;4966770;28;20073;-78
2021/08/04 10:10:25;;;;;;;3.65;3.35;;;20.80;99.90;;;;;;4965641;28;20038;-80
2021/08/04 10:12:51;;;;;;;5.05;3.65;;;20.70;99.90;;;;;;4960777;28;20517;-79
2021/08/04 10:15:16;;;;;;;4.95;3.83;;;20.80;99.90;;;;;;4969453;28;20030;-80
2021/08/04 10:17:42;;;;;;;5.57;3.55;;;20.90;99.90;;;;;;4965188;28;20019;-79
2021/08/04 10:20:08;;;;;;;6.72;4.30;;;21.00;99.90;;;;;;4960780;28;20039;-79
2021/08/04 10:22:36;;;;;;;6.65;4.03;;;21.10;99.90;;;;;;4960443;28;20165;-79
2021/08/04 10:25:03;;;;;;;4.88;4.00;;;21.20;99.90;;;;;;4961086;28;20055;-79
2021/08/04 10:27:29;;;;;;;4.88;3.85;;;21.30;99.90;;;;;;4962592;28;20173;-79
2021/08/04 10:29:57;;;;;;;5.43;4.38;;;21.40;99.90;;;;;;4967156;28;20022;-79
2021/08/04 10:32:23;;;;;;;5.13;3.47;;;21.50;99.90;;;;;;4981171;28;20038;-79
2021/08/04 10:34:49;;;;;;;6.07;3.95;;;21.70;99.90;;;;;;4980126;28;20029;-79
2021/08/04 10:37:16;;;;;;;6.55;3.45;;;21.80;99.80;;;;;;4971417;28;20463;-80
2021/08/04 10:39:42;;;;;;;6.53;4.07;;;21.80;99.70;;;;;;4975831;28;20391;-79
2021/08/04 10:42:09;;;;;;;5.72;5.05;;;22.00;99.50;;;;;;4978780;28;20028;-79
2021/08/04 10:44:35;;;;;;;4.57;4.28;;;21.90;99.10;;;;;;4989960;28;20026;-80
2021/08/04 10:47:04;;;;;;;4.80;4.40;;;21.90;99.30;;;;;;4990362;28;20090;-79
2021/08/04 10:49:32;;;;;;;4.80;4.22;;;21.90;98.80;;;;;;4971759;28;20031;-79
2021/08/04 10:52:09;;;;;;;5.38;4.88;;;21.90;99.20;;;;;;4972304;28;20030;-79
2021/08/04 10:54:35;;;;;;;4.90;4.50;;;21.90;99.20;;;;;;4983454;28;20031;-80
2021/08/04 10:57:01;;;;;;;5.60;5.10;;;21.90;99.50;;;;;;4984777;28;20034;-81
2021/08/04 10:59:31;;;;;;;9.35;6.30;;;21.80;99.70;;;;;;4969080;28;20450;-80
2021/08/04 11:02:02;;;;;;;6.05;5.28;;;21.60;99.70;;;;;;4964644;28;20026;-80
2021/08/04 11:04:28;;;;;;;6.82;6.22;;;21.60;99.70;;;;;;4969031;28;20070;-79
2021/08/04 11:07:10;;;;;;;8.25;6.10;;;21.40;99.90;;;;;;4975290;28;20034;-80
2021/08/04 11:09:41;;;;;;;6.55;5.95;;;21.40;99.90;;;;;;4975538;28;20031;-79
2021/08/04 11:12:08;;;;;;;8.68;6.03;;;21.50;99.90;;;;;;4974412;28;20058;-80
2021/08/04 11:14:53;;;;;;;7.85;6.43;;;21.70;99.90;;;;;;4974857;28;20085;-79
2021/08/04 11:17:31;;;;;;;9.07;5.47;;;21.90;99.90;;;;;;4975177;28;20131;-79
2021/08/04 11:20:09;;;;;;;7.10;5.80;;;22.30;99.60;;;;;;4974053;28;20023;-79
2021/08/04 11:22:34;;;;;;;7.55;5.80;;;22.50;99.00;;;;;;4975687;28;20031;-80
2021/08/04 11:25:02;;;;;;;6.28;5.70;;;22.70;98.70;;;;;;4977958;28;20074;-79
2021/08/04 11:27:32;;;;;;;6.85;5.93;;;22.70;98.20;;;;;;4991838;28;20034;-80
2021/08/04 11:29:59;;;;;;;6.40;5.60;;;22.60;98.00;;;;;;4975780;28;20726;-80
2021/08/04 11:32:26;;;;;;;9.52;5.55;;;22.50;97.90;;;;;;4978475;28;20026;-81
2021/08/04 11:34:52;;;;;;;5.63;5.13;;;22.40;98.00;;;;;;4980797;28;20030;-80
2021/08/04 11:37:21;;;;;;;5.57;5.07;;;22.20;98.10;;;;;;4976717;28;20030;-82
2021/08/04 11:40:00;;;;;;;7.32;6.47;;;22.20;98.40;;;;;;4980199;28;20037;-79
2021/08/04 11:42:27;;;;;;;8.00;5.22;;;22.20;98.00;;;;;;4989484;28;20105;-80
2021/08/04 11:44:53;;;;;;;7.15;5.13;;;22.20;98.40;;;;;;4995388;28;20053;-78
2021/08/04 11:47:19;;;;;;;5.85;5.25;;;22.20;98.70;;;;;;4980447;28;20077;-79
2021/08/04 11:49:49;;;;;;;6.63;5.80;;;22.40;98.40;;;;;;4992330;28;20023;-80
2021/08/04 11:52:23;;;;;;;6.22;4.88;;;22.60;97.50;;;;;;4969993;28;20035;-80
2021/08/04 11:54:53;;;;;;;6.47;5.97;;;22.70;97.60;;;;;;4976491;28;20078;-80
2021/08/04 11:57:29;;;;;;;6.75;5.90;;;22.70;97.50;;;;;;4985829;28;20029;-79
2021/08/04 11:59:58;;;;;;;6.30;5.72;;;22.70;97.50;;;;;;4975206;28;20078;-80
2021/08/04 12:02:24;;;;;;;7.57;5.35;;;22.80;96.90;;;;;;4968219;28;20113;-80
2021/08/04 12:04:53;;;;;;;7.80;6.25;;;22.80;96.50;;;;;;4974523;28;20022;-80
2021/08/04 12:07:22;;;;;;;5.45;5.00;;;23.20;96.50;;;;;;4973425;28;20471;-80
2021/08/04 12:09:48;;;;;;;6.07;5.57;;;23.40;96.20;;;;;;4962797;28;20087;-79
2021/08/04 12:12:22;;;;;;;6.40;5.80;;;23.50;95.60;;;;;;4969664;28;20070;-80
2021/08/04 12:14:50;;;;;;;6.60;5.82;;;23.50;95.60;;;;;;4973805;28;20105;-80
2021/08/04 12:17:31;;;;;;;10.70;6.15;;;23.50;95.50;;;;;;4989246;28;20026;-79
2021/08/04 12:19:58;;;;;;;6.70;5.90;;;23.50;95.10;;;;;;4978623;28;20062;-80
2021/08/04 12:22:26;;;;;;;11.93;5.38;;;23.60;94.70;;;;;;4958676;28;20043;-79
2021/08/04 12:24:58;;;;;;;7.53;6.05;;;23.80;95.10;;;;;;4961241;28;20033;-80
2021/08/04 12:27:39;;;;;;;7.80;6.15;;;23.80;95.00;;;;;;4959139;28;20543;-80
2021/08/04 12:30:25;;;;;;;7.72;6.35;;;23.90;94.90;;;;;;4965101;28;20035;-82
2021/08/04 12:32:52;;;;;;;8.68;6.20;;;24.00;94.50;;;;;;4954763;28;20521;-79
2021/08/04 12:35:25;;;;;;;5.95;5.40;;;24.00;94.00;;;;;;4964578;28;20082;-80
2021/08/04 12:37:51;;;;;;;7.05;5.60;;;23.90;93.70;;;;;;4966223;28;20102;-81
2021/08/04 12:40:17;;;;;;;6.70;6.10;;;24.00;93.60;;;;;;4962325;28;20041;-81
2021/08/04 12:42:43;;;;;;;7.57;5.72;;;24.10;93.40;;;;;;4960633;28;20031;-79
2021/08/04 12:45:27;;;;;;;7.00;6.30;;;24.20;93.20;;;;;;4966835;28;20427;-80